sensor_id;sensor_type;location;lat;lon;timestamp;temperature;humidity
77829;DHT22;67019;51.034;3.728;2023-05-07T00:00:14;16.90;91.60
77829;DHT22;67019;51.034;3.728;2023-05-07T00:02:43;17.00;91.60
77829;DHT22;67019;51.034;3.728;2023-05-07T00:05:11;17.00;91.50
77829;DHT22;67019;51.034;3.728;2023-05-07T00:07:39;17.00;91.40
77829;DHT22;67019;51.034;3.728;2023-05-07T00:10:07;17.10;91.40
77829;DHT22;67019;51.034;3.728;2023-05-07T00:12:35;17.10;91.20
77829;DHT22;67019;51.034;3.728;2023-05-07T00:15:03;17.00;91.30
77829;DHT22;67019;51.034;3.728;2023-05-07T00:17:32;17.00;91.40
77829;DHT22;67019;51.034;3.728;2023-05-07T00:20:00;17.20;91.00
77829;DHT22;67019;51.034;3.728;2023-05-07T00:22:27;17.20;90.90
77829;DHT22;67019;51.034;3.728;2023-05-07T00:24:56;17.10;90.90
77829;DHT22;67019;51.034;3.728;2023-05-07T00:27:25;17.00;91.10
77829;DHT22;67019;51.034;3.728;2023-05-07T00:29:52;16.90;91.30
77829;DHT22;67019;51.034;3.728;2023-05-07T00:32:20;16.80;91.80
77829;DHT22;67019;51.034;3.728;2023-05-07T00:34:48;16.70;92.10
77829;DHT22;67019;51.034;3.728;2023-05-07T00:37:17;16.70;92.30
77829;DHT22;67019;51.034;3.728;2023-05-07T00:39:44;16.70;92.40
77829;DHT22;67019;51.034;3.728;2023-05-07T00:42:12;16.80;92.10
77829;DHT22;67019;51.034;3.728;2023-05-07T00:44:41;16.90;92.00
77829;DHT22;67019;51.034;3.728;2023-05-07T00:47:09;16.90;91.50
77829;DHT22;67019;51.034;3.728;2023-05-07T00:49:39;17.10;91.20
77829;DHT22;67019;51.034;3.728;2023-05-07T00:52:07;17.00;91.20
77829;DHT22;67019;51.034;3.728;2023-05-07T00:54:35;17.00;91.50
77829;DHT22;67019;51.034;3.728;2023-05-07T00:57:03;16.70;91.80
77829;DHT22;67019;51.034;3.728;2023-05-07T00:59:32;17.00;91.70
77829;DHT22;67019;51.034;3.728;2023-05-07T01:02:00;17.30;91.00
77829;DHT22;67019;51.034;3.728;2023-05-07T01:04:28;17.20;90.90
77829;DHT22;67019;51.034;3.728;2023-05-07T01:06:57;17.10;91.20
77829;DHT22;67019;51.034;3.728;2023-05-07T01:09:25;17.10;91.40
77829;DHT22;67019;51.034;3.728;2023-05-07T01:11:53;17.00;91.40
77829;DHT22;67019;51.034;3.728;2023-05-07T01:14:21;17.10;91.30
77829;DHT22;67019;51.034;3.728;2023-05-07T01:16:49;17.00;91.60
77829;DHT22;67019;51.034;3.728;2023-05-07T01:19:18;16.90;91.60
77829;DHT22;67019;51.034;3.728;2023-05-07T01:21:48;16.80;91.90
77829;DHT22;67019;51.034;3.728;2023-05-07T01:24:16;16.80;92.00
77829;DHT22;67019;51.034;3.728;2023-05-07T01:26:45;16.70;92.30
77829;DHT22;67019;51.034;3.728;2023-05-07T01:29:13;16.50;92.80
77829;DHT22;67019;51.034;3.728;2023-05-07T01:31:42;16.40;93.10
77829;DHT22;67019;51.034;3.728;2023-05-07T01:34:11;16.20;93.30
77829;DHT22;67019;51.034;3.728;2023-05-07T01:36:40;16.10;93.60
77829;DHT22;67019;51.034;3.728;2023-05-07T01:39:10;16.00;93.70
77829;DHT22;67019;51.034;3.728;2023-05-07T01:41:38;16.00;93.60
77829;DHT22;67019;51.034;3.728;2023-05-07T01:44:06;15.90;93.70
77829;DHT22;67019;51.034;3.728;2023-05-07T01:46:34;15.90;93.70
77829;DHT22;67019;51.034;3.728;2023-05-07T01:49:01;15.90;93.70
77829;DHT22;67019;51.034;3.728;2023-05-07T01:51:29;15.90;93.70
77829;DHT22;67019;51.034;3.728;2023-05-07T01:53:57;15.80;94.30
77829;DHT22;67019;51.034;3.728;2023-05-07T01:56:28;15.80;94.40
77829;DHT22;67019;51.034;3.728;2023-05-07T01:58:56;15.80;94.50
77829;DHT22;67019;51.034;3.728;2023-05-07T02:01:24;15.90;94.50
77829;DHT22;67019;51.034;3.728;2023-05-07T02:03:51;15.90;94.40
77829;DHT22;67019;51.034;3.728;2023-05-07T02:06:20;16.10;94.30
77829;DHT22;67019;51.034;3.728;2023-05-07T02:08:47;16.10;94.00
77829;DHT22;67019;51.034;3.728;2023-05-07T02:11:15;16.30;93.30
77829;DHT22;67019;51.034;3.728;2023-05-07T02:13:43;16.50;93.10
77829;DHT22;67019;51.034;3.728;2023-05-07T02:16:10;16.30;93.40
77829;DHT22;67019;51.034;3.728;2023-05-07T02:18:40;16.00;94.00
77829;DHT22;67019;51.034;3.728;2023-05-07T02:21:07;15.90;94.20
77829;DHT22;67019;51.034;3.728;2023-05-07T02:23:35;15.80;94.70
77829;DHT22;67019;51.034;3.728;2023-05-07T02:26:04;15.90;94.40
77829;DHT22;67019;51.034;3.728;2023-05-07T02:28:31;16.00;94.20
77829;DHT22;67019;51.034;3.728;2023-05-07T02:31:03;16.00;94.30
77829;DHT22;67019;51.034;3.728;2023-05-07T02:33:31;16.10;93.90
77829;DHT22;67019;51.034;3.728;2023-05-07T02:36:06;16.30;93.50
77829;DHT22;67019;51.034;3.728;2023-05-07T02:38:34;16.20;93.60
77829;DHT22;67019;51.034;3.728;2023-05-07T02:41:01;16.20;93.70
77829;DHT22;67019;51.034;3.728;2023-05-07T02:43:29;16.30;93.70
77829;DHT22;67019;51.034;3.728;2023-05-07T02:46:05;16.20;93.80
77829;DHT22;67019;51.034;3.728;2023-05-07T02:48:35;16.10;94.00
77829;DHT22;67019;51.034;3.728;2023-05-07T02:51:02;16.20;93.90
77829;DHT22;67019;51.034;3.728;2023-05-07T02:53:30;16.40;93.30
77829;DHT22;67019;51.034;3.728;2023-05-07T02:55:59;16.30;93.20
77829;DHT22;67019;51.034;3.728;2023-05-07T02:58:28;16.10;93.50
77829;DHT22;67019;51.034;3.728;2023-05-07T03:00:56;16.00;94.00
77829;DHT22;67019;51.034;3.728;2023-05-07T03:03:23;15.90;94.10
77829;DHT22;67019;51.034;3.728;2023-05-07T03:05:51;15.80;94.40
77829;DHT22;67019;51.034;3.728;2023-05-07T03:08:19;15.70;94.70
77829;DHT22;67019;51.034;3.728;2023-05-07T03:10:47;15.60;95.10
77829;DHT22;67019;51.034;3.728;2023-05-07T03:13:14;15.50;95.00
77829;DHT22;67019;51.034;3.728;2023-05-07T03:15:42;15.60;95.00
77829;DHT22;67019;51.034;3.728;2023-05-07T03:18:09;15.70;94.90
77829;DHT22;67019;51.034;3.728;2023-05-07T03:20:37;15.80;94.60
77829;DHT22;67019;51.034;3.728;2023-05-07T03:23:05;15.90;94.30
77829;DHT22;67019;51.034;3.728;2023-05-07T03:25:32;16.00;94.10
77829;DHT22;67019;51.034;3.728;2023-05-07T03:28:01;16.00;94.00
77829;DHT22;67019;51.034;3.728;2023-05-07T03:30:29;16.20;93.80
77829;DHT22;67019;51.034;3.728;2023-05-07T03:32:57;16.20;93.50
77829;DHT22;67019;51.034;3.728;2023-05-07T03:35:24;16.30;93.30
77829;DHT22;67019;51.034;3.728;2023-05-07T03:37:52;16.40;93.20
77829;DHT22;67019;51.034;3.728;2023-05-07T03:40:20;16.40;93.30
77829;DHT22;67019;51.034;3.728;2023-05-07T03:42:47;16.60;92.60
77829;DHT22;67019;51.034;3.728;2023-05-07T03:45:15;16.60;92.80
77829;DHT22;67019;51.034;3.728;2023-05-07T03:47:42;16.50;92.80
77829;DHT22;67019;51.034;3.728;2023-05-07T03:50:10;16.30;93.30
77829;DHT22;67019;51.034;3.728;2023-05-07T03:52:38;16.20;93.80
77829;DHT22;67019;51.034;3.728;2023-05-07T03:55:05;16.00;93.80
77829;DHT22;67019;51.034;3.728;2023-05-07T03:57:33;16.10;94.10
77829;DHT22;67019;51.034;3.728;2023-05-07T04:00:01;15.90;94.50
77829;DHT22;67019;51.034;3.728;2023-05-07T04:02:30;15.90;94.70
77829;DHT22;67019;51.034;3.728;2023-05-07T04:04:58;15.80;94.90
77829;DHT22;67019;51.034;3.728;2023-05-07T04:07:25;15.80;95.10
77829;DHT22;67019;51.034;3.728;2023-05-07T04:09:53;15.80;95.10
77829;DHT22;67019;51.034;3.728;2023-05-07T04:12:20;15.40;95.70
77829;DHT22;67019;51.034;3.728;2023-05-07T04:14:48;15.70;95.70
77829;DHT22;67019;51.034;3.728;2023-05-07T04:17:16;15.90;95.20
77829;DHT22;67019;51.034;3.728;2023-05-07T04:19:43;16.00;94.90
77829;DHT22;67019;51.034;3.728;2023-05-07T04:22:11;16.10;95.10
77829;DHT22;67019;51.034;3.728;2023-05-07T04:24:40;16.30;94.20
77829;DHT22;67019;51.034;3.728;2023-05-07T04:27:08;16.40;93.90
77829;DHT22;67019;51.034;3.728;2023-05-07T04:29:37;16.50;93.70
77829;DHT22;67019;51.034;3.728;2023-05-07T04:32:06;16.50;93.40
77829;DHT22;67019;51.034;3.728;2023-05-07T04:34:35;16.60;93.30
77829;DHT22;67019;51.034;3.728;2023-05-07T04:37:03;16.40;93.90
77829;DHT22;67019;51.034;3.728;2023-05-07T04:39:30;16.00;94.40
77829;DHT22;67019;51.034;3.728;2023-05-07T04:42:00;15.60;95.20
77829;DHT22;67019;51.034;3.728;2023-05-07T04:44:28;15.40;95.70
77829;DHT22;67019;51.034;3.728;2023-05-07T04:46:57;15.40;96.00
77829;DHT22;67019;51.034;3.728;2023-05-07T04:49:25;15.30;96.20
77829;DHT22;67019;51.034;3.728;2023-05-07T04:51:52;15.30;96.50
77829;DHT22;67019;51.034;3.728;2023-05-07T04:54:20;15.70;95.90
77829;DHT22;67019;51.034;3.728;2023-05-07T04:56:48;16.40;94.40
77829;DHT22;67019;51.034;3.728;2023-05-07T04:59:15;16.60;93.80
77829;DHT22;67019;51.034;3.728;2023-05-07T05:01:43;16.40;94.10
77829;DHT22;67019;51.034;3.728;2023-05-07T05:04:10;16.50;94.10
77829;DHT22;67019;51.034;3.728;2023-05-07T05:06:38;16.60;93.90
77829;DHT22;67019;51.034;3.728;2023-05-07T05:09:06;16.50;94.00
77829;DHT22;67019;51.034;3.728;2023-05-07T05:11:33;16.50;93.90
77829;DHT22;67019;51.034;3.728;2023-05-07T05:14:01;16.70;94.00
77829;DHT22;67019;51.034;3.728;2023-05-07T05:16:29;16.50;93.80
77829;DHT22;67019;51.034;3.728;2023-05-07T05:18:56;16.70;94.00
77829;DHT22;67019;51.034;3.728;2023-05-07T05:21:24;16.70;94.10
77829;DHT22;67019;51.034;3.728;2023-05-07T05:23:52;16.70;93.90
77829;DHT22;67019;51.034;3.728;2023-05-07T05:26:19;16.50;94.40
77829;DHT22;67019;51.034;3.728;2023-05-07T05:28:47;16.00;94.90
77829;DHT22;67019;51.034;3.728;2023-05-07T05:31:16;15.80;96.00
77829;DHT22;67019;51.034;3.728;2023-05-07T05:33:43;15.40;97.00
77829;DHT22;67019;51.034;3.728;2023-05-07T05:36:11;15.50;97.30
77829;DHT22;67019;51.034;3.728;2023-05-07T05:38:39;15.10;98.10
77829;DHT22;67019;51.034;3.728;2023-05-07T05:41:07;15.00;99.00
77829;DHT22;67019;51.034;3.728;2023-05-07T05:43:35;14.90;99.50
77829;DHT22;67019;51.034;3.728;2023-05-07T05:46:02;14.90;99.90
77829;DHT22;67019;51.034;3.728;2023-05-07T05:48:32;14.80;99.90
77829;DHT22;67019;51.034;3.728;2023-05-07T05:51:00;15.00;99.90
77829;DHT22;67019;51.034;3.728;2023-05-07T05:53:29;14.60;99.90
77829;DHT22;67019;51.034;3.728;2023-05-07T05:55:56;14.30;99.90
77829;DHT22;67019;51.034;3.728;2023-05-07T05:58:24;14.20;99.90
77829;DHT22;67019;51.034;3.728;2023-05-07T06:00:54;14.10;99.90
77829;DHT22;67019;51.034;3.728;2023-05-07T06:03:21;14.00;99.90
77829;DHT22;67019;51.034;3.728;2023-05-07T06:05:49;14.00;99.90
77829;DHT22;67019;51.034;3.728;2023-05-07T06:08:16;14.00;99.90
77829;DHT22;67019;51.034;3.728;2023-05-07T06:10:48;14.00;99.90
77829;DHT22;67019;51.034;3.728;2023-05-07T06:13:17;13.90;99.90
77829;DHT22;67019;51.034;3.728;2023-05-07T06:15:45;14.00;99.90
77829;DHT22;67019;51.034;3.728;2023-05-07T06:18:14;13.90;99.90
77829;DHT22;67019;51.034;3.728;2023-05-07T06:20:41;14.00;99.90
77829;DHT22;67019;51.034;3.728;2023-05-07T06:23:09;14.00;99.90
77829;DHT22;67019;51.034;3.728;2023-05-07T06:25:36;14.20;99.90
77829;DHT22;67019;51.034;3.728;2023-05-07T06:28:04;14.70;99.90
77829;DHT22;67019;51.034;3.728;2023-05-07T06:30:32;14.60;99.90
77829;DHT22;67019;51.034;3.728;2023-05-07T06:32:59;14.80;99.90
77829;DHT22;67019;51.034;3.728;2023-05-07T06:35:27;15.10;99.90
77829;DHT22;67019;51.034;3.728;2023-05-07T06:37:54;15.00;99.90
77829;DHT22;67019;51.034;3.728;2023-05-07T06:40:22;15.20;99.90
77829;DHT22;67019;51.034;3.728;2023-05-07T06:42:49;15.50;99.90
77829;DHT22;67019;51.034;3.728;2023-05-07T06:45:17;15.40;99.90
77829;DHT22;67019;51.034;3.728;2023-05-07T06:47:46;15.10;99.90
77829;DHT22;67019;51.034;3.728;2023-05-07T06:50:14;15.00;99.90
77829;DHT22;67019;51.034;3.728;2023-05-07T06:52:43;15.40;99.90
77829;DHT22;67019;51.034;3.728;2023-05-07T06:55:11;15.30;99.90
77829;DHT22;67019;51.034;3.728;2023-05-07T06:57:38;14.90;99.90
77829;DHT22;67019;51.034;3.728;2023-05-07T07:00:07;14.80;99.90
77829;DHT22;67019;51.034;3.728;2023-05-07T07:02:37;14.90;99.90
77829;DHT22;67019;51.034;3.728;2023-05-07T07:05:05;14.90;99.90
77829;DHT22;67019;51.034;3.728;2023-05-07T07:07:33;14.90;99.90
77829;DHT22;67019;51.034;3.728;2023-05-07T07:10:00;14.90;99.90
77829;DHT22;67019;51.034;3.728;2023-05-07T07:12:30;15.30;99.90
77829;DHT22;67019;51.034;3.728;2023-05-07T07:14:59;15.10;99.90
77829;DHT22;67019;51.034;3.728;2023-05-07T07:17:27;15.40;99.90
77829;DHT22;67019;51.034;3.728;2023-05-07T07:19:55;15.30;99.90
77829;DHT22;67019;51.034;3.728;2023-05-07T07:22:22;15.20;99.90
77829;DHT22;67019;51.034;3.728;2023-05-07T07:24:50;15.10;99.90
77829;DHT22;67019;51.034;3.728;2023-05-07T07:27:18;15.20;99.90
77829;DHT22;67019;51.034;3.728;2023-05-07T07:29:46;15.70;99.90
77829;DHT22;67019;51.034;3.728;2023-05-07T07:32:15;15.70;99.90
77829;DHT22;67019;51.034;3.728;2023-05-07T07:34:46;15.60;99.90
77829;DHT22;67019;51.034;3.728;2023-05-07T07:37:17;15.40;99.90
77829;DHT22;67019;51.034;3.728;2023-05-07T07:39:46;15.10;99.90
77829;DHT22;67019;51.034;3.728;2023-05-07T07:42:15;14.90;99.90
77829;DHT22;67019;51.034;3.728;2023-05-07T07:44:46;15.10;99.90
77829;DHT22;67019;51.034;3.728;2023-05-07T07:47:15;15.00;99.90
77829;DHT22;67019;51.034;3.728;2023-05-07T07:49:42;15.40;99.90
77829;DHT22;67019;51.034;3.728;2023-05-07T07:52:10;15.90;99.90
77829;DHT22;67019;51.034;3.728;2023-05-07T07:54:37;15.80;99.90
77829;DHT22;67019;51.034;3.728;2023-05-07T07:57:06;15.70;99.90
77829;DHT22;67019;51.034;3.728;2023-05-07T07:59:41;16.00;99.90
77829;DHT22;67019;51.034;3.728;2023-05-07T08:02:11;15.90;99.90
77829;DHT22;67019;51.034;3.728;2023-05-07T08:04:42;16.00;99.90
77829;DHT22;67019;51.034;3.728;2023-05-07T08:07:11;16.00;99.90
77829;DHT22;67019;51.034;3.728;2023-05-07T08:09:42;16.10;99.90
77829;DHT22;67019;51.034;3.728;2023-05-07T08:12:09;16.20;99.90
77829;DHT22;67019;51.034;3.728;2023-05-07T08:14:41;15.80;99.90
77829;DHT22;67019;51.034;3.728;2023-05-07T08:17:09;15.50;99.90
77829;DHT22;67019;51.034;3.728;2023-05-07T08:19:43;15.40;99.90
77829;DHT22;67019;51.034;3.728;2023-05-07T08:22:11;15.20;99.90
77829;DHT22;67019;51.034;3.728;2023-05-07T08:24:40;15.20;99.90
77829;DHT22;67019;51.034;3.728;2023-05-07T08:27:08;15.20;99.90
77829;DHT22;67019;51.034;3.728;2023-05-07T08:29:37;15.10;99.90
77829;DHT22;67019;51.034;3.728;2023-05-07T08:32:04;15.20;99.90
77829;DHT22;67019;51.034;3.728;2023-05-07T08:34:32;15.30;99.90
77829;DHT22;67019;51.034;3.728;2023-05-07T08:37:00;15.80;99.90
77829;DHT22;67019;51.034;3.728;2023-05-07T08:39:27;15.60;99.90
77829;DHT22;67019;51.034;3.728;2023-05-07T08:41:55;15.90;99.90
77829;DHT22;67019;51.034;3.728;2023-05-07T08:44:26;16.10;99.90
77829;DHT22;67019;51.034;3.728;2023-05-07T08:46:56;16.00;99.90
77829;DHT22;67019;51.034;3.728;2023-05-07T08:49:25;16.20;99.90
77829;DHT22;67019;51.034;3.728;2023-05-07T08:51:53;15.80;99.90
77829;DHT22;67019;51.034;3.728;2023-05-07T08:54:21;15.90;99.90
77829;DHT22;67019;51.034;3.728;2023-05-07T08:56:49;15.70;99.90
77829;DHT22;67019;51.034;3.728;2023-05-07T08:59:17;15.60;99.90
77829;DHT22;67019;51.034;3.728;2023-05-07T09:01:44;15.50;99.90
77829;DHT22;67019;51.034;3.728;2023-05-07T09:04:12;15.60;99.90
77829;DHT22;67019;51.034;3.728;2023-05-07T09:06:40;15.70;99.90
77829;DHT22;67019;51.034;3.728;2023-05-07T09:09:08;16.00;99.90
77829;DHT22;67019;51.034;3.728;2023-05-07T09:11:36;16.30;99.90
77829;DHT22;67019;51.034;3.728;2023-05-07T09:14:03;16.10;99.90
77829;DHT22;67019;51.034;3.728;2023-05-07T09:16:33;16.20;99.90
77829;DHT22;67019;51.034;3.728;2023-05-07T09:19:00;16.60;99.90
77829;DHT22;67019;51.034;3.728;2023-05-07T09:21:29;16.80;99.90
77829;DHT22;67019;51.034;3.728;2023-05-07T09:23:59;16.90;99.90
77829;DHT22;67019;51.034;3.728;2023-05-07T09:26:27;16.80;99.90
77829;DHT22;67019;51.034;3.728;2023-05-07T09:28:57;17.20;99.90
77829;DHT22;67019;51.034;3.728;2023-05-07T09:31:24;17.10;99.90
77829;DHT22;67019;51.034;3.728;2023-05-07T09:33:53;17.10;99.90
77829;DHT22;67019;51.034;3.728;2023-05-07T09:36:25;17.50;99.30
77829;DHT22;67019;51.034;3.728;2023-05-07T09:38:54;17.70;99.00
77829;DHT22;67019;51.034;3.728;2023-05-07T09:41:23;18.00;98.00
77829;DHT22;67019;51.034;3.728;2023-05-07T09:43:55;17.80;98.30
77829;DHT22;67019;51.034;3.728;2023-05-07T09:46:25;17.90;98.70
77829;DHT22;67019;51.034;3.728;2023-05-07T09:48:52;17.80;98.90
77829;DHT22;67019;51.034;3.728;2023-05-07T09:54:05;17.70;99.10
77829;DHT22;67019;51.034;3.728;2023-05-07T09:56:33;17.30;99.50
77829;DHT22;67019;51.034;3.728;2023-05-07T09:59:02;17.00;99.90
77829;DHT22;67019;51.034;3.728;2023-05-07T10:01:31;16.90;99.90
77829;DHT22;67019;51.034;3.728;2023-05-07T10:04:01;17.20;99.90
77829;DHT22;67019;51.034;3.728;2023-05-07T10:06:30;17.40;99.90
77829;DHT22;67019;51.034;3.728;2023-05-07T10:08:59;17.30;99.90
77829;DHT22;67019;51.034;3.728;2023-05-07T10:11:27;17.60;99.90
77829;DHT22;67019;51.034;3.728;2023-05-07T10:13:55;17.00;99.90
77829;DHT22;67019;51.034;3.728;2023-05-07T10:16:23;16.80;99.90
77829;DHT22;67019;51.034;3.728;2023-05-07T10:18:53;16.60;99.90
77829;DHT22;67019;51.034;3.728;2023-05-07T10:21:23;16.40;99.90
77829;DHT22;67019;51.034;3.728;2023-05-07T10:24:16;16.70;99.90
77829;DHT22;67019;51.034;3.728;2023-05-07T10:26:21;16.80;99.90
77829;DHT22;67019;51.034;3.728;2023-05-07T10:28:53;16.80;99.90
77829;DHT22;67019;51.034;3.728;2023-05-07T10:34:10;17.30;99.90
77829;DHT22;67019;51.034;3.728;2023-05-07T10:36:40;17.10;99.90
77829;DHT22;67019;51.034;3.728;2023-05-07T10:39:09;17.10;99.90
77829;DHT22;67019;51.034;3.728;2023-05-07T10:41:37;16.90;99.90
77829;DHT22;67019;51.034;3.728;2023-05-07T10:44:04;16.80;99.90
77829;DHT22;67019;51.034;3.728;2023-05-07T10:46:32;16.90;99.90
77829;DHT22;67019;51.034;3.728;2023-05-07T10:51:36;17.10;99.90
77829;DHT22;67019;51.034;3.728;2023-05-07T10:56:44;18.00;99.70
77829;DHT22;67019;51.034;3.728;2023-05-07T10:59:29;18.40;98.60
77829;DHT22;67019;51.034;3.728;2023-05-07T11:02:00;18.40;98.40
77829;DHT22;67019;51.034;3.728;2023-05-07T11:04:29;18.00;97.80
77829;DHT22;67019;51.034;3.728;2023-05-07T11:07:15;17.90;99.00
77829;DHT22;67019;51.034;3.728;2023-05-07T11:15:11;18.20;98.90
77829;DHT22;67019;51.034;3.728;2023-05-07T11:17:58;18.50;98.40
77829;DHT22;67019;51.034;3.728;2023-05-07T11:26:08;19.30;95.90
77829;DHT22;67019;51.034;3.728;2023-05-07T11:28:37;19.10;96.40
77829;DHT22;67019;51.034;3.728;2023-05-07T11:31:06;18.60;97.50
77829;DHT22;67019;51.034;3.728;2023-05-07T11:33:34;18.40;97.60
77829;DHT22;67019;51.034;3.728;2023-05-07T11:36:03;18.60;97.00
77829;DHT22;67019;51.034;3.728;2023-05-07T11:38:34;18.80;96.20
77829;DHT22;67019;51.034;3.728;2023-05-07T11:41:00;18.50;96.50
77829;DHT22;67019;51.034;3.728;2023-05-07T11:43:31;18.60;96.60
77829;DHT22;67019;51.034;3.728;2023-05-07T11:46:09;18.90;97.30
77829;DHT22;67019;51.034;3.728;2023-05-07T11:48:39;19.30;95.20
77829;DHT22;67019;51.034;3.728;2023-05-07T11:51:07;19.20;95.80
77829;DHT22;67019;51.034;3.728;2023-05-07T11:53:42;19.00;95.40
77829;DHT22;67019;51.034;3.728;2023-05-07T11:56:16;18.80;96.60
77829;DHT22;67019;51.034;3.728;2023-05-07T11:58:41;18.80;96.40
77829;DHT22;67019;51.034;3.728;2023-05-07T12:01:10;18.90;96.60
77829;DHT22;67019;51.034;3.728;2023-05-07T12:03:42;19.00;95.70
77829;DHT22;67019;51.034;3.728;2023-05-07T12:06:13;19.20;95.80
77829;DHT22;67019;51.034;3.728;2023-05-07T12:08:42;19.20;95.00
77829;DHT22;67019;51.034;3.728;2023-05-07T12:11:16;19.30;95.80
77829;DHT22;67019;51.034;3.728;2023-05-07T12:13:45;19.20;95.90
77829;DHT22;67019;51.034;3.728;2023-05-07T12:16:13;18.90;95.50
77829;DHT22;67019;51.034;3.728;2023-05-07T12:18:42;19.30;95.70
77829;DHT22;67019;51.034;3.728;2023-05-07T12:21:10;19.70;94.30
77829;DHT22;67019;51.034;3.728;2023-05-07T12:23:38;19.90;94.70
77829;DHT22;67019;51.034;3.728;2023-05-07T12:26:06;20.40;91.70
77829;DHT22;67019;51.034;3.728;2023-05-07T12:28:38;20.50;93.30
77829;DHT22;67019;51.034;3.728;2023-05-07T12:31:07;20.30;93.10
77829;DHT22;67019;51.034;3.728;2023-05-07T12:33:36;20.20;94.10
77829;DHT22;67019;51.034;3.728;2023-05-07T12:36:05;19.70;93.30
77829;DHT22;67019;51.034;3.728;2023-05-07T12:38:42;19.70;92.10
77829;DHT22;67019;51.034;3.728;2023-05-07T12:41:10;19.70;92.60
77829;DHT22;67019;51.034;3.728;2023-05-07T12:43:40;20.40;90.50
77829;DHT22;67019;51.034;3.728;2023-05-07T12:46:09;19.90;91.60
77829;DHT22;67019;51.034;3.728;2023-05-07T12:48:38;19.30;93.10
77829;DHT22;67019;51.034;3.728;2023-05-07T12:51:06;19.50;92.60
77829;DHT22;67019;51.034;3.728;2023-05-07T12:53:42;19.70;92.00
77829;DHT22;67019;51.034;3.728;2023-05-07T12:56:06;20.50;91.60
77829;DHT22;67019;51.034;3.728;2023-05-07T12:58:35;20.40;91.80
77829;DHT22;67019;51.034;3.728;2023-05-07T13:01:07;20.90;90.80
77829;DHT22;67019;51.034;3.728;2023-05-07T13:03:37;21.60;88.60
77829;DHT22;67019;51.034;3.728;2023-05-07T13:06:07;21.80;89.00
77829;DHT22;67019;51.034;3.728;2023-05-07T13:08:40;21.30;88.80
77829;DHT22;67019;51.034;3.728;2023-05-07T13:11:10;21.00;89.10
77829;DHT22;67019;51.034;3.728;2023-05-07T13:13:40;20.40;90.10
77829;DHT22;67019;51.034;3.728;2023-05-07T13:16:10;20.40;91.30
77829;DHT22;67019;51.034;3.728;2023-05-07T13:18:39;20.00;91.60
77829;DHT22;67019;51.034;3.728;2023-05-07T13:21:08;20.50;91.10
77829;DHT22;67019;51.034;3.728;2023-05-07T13:23:37;21.00;89.20
77829;DHT22;67019;51.034;3.728;2023-05-07T13:26:05;21.70;86.50
77829;DHT22;67019;51.034;3.728;2023-05-07T13:28:32;22.00;87.20
77829;DHT22;67019;51.034;3.728;2023-05-07T13:31:00;22.30;84.90
77829;DHT22;67019;51.034;3.728;2023-05-07T13:33:27;22.20;85.10
77829;DHT22;67019;51.034;3.728;2023-05-07T13:35:55;22.00;87.20
77829;DHT22;67019;51.034;3.728;2023-05-07T13:38:23;21.90;85.00
77829;DHT22;67019;51.034;3.728;2023-05-07T13:40:51;21.60;88.00
77829;DHT22;67019;51.034;3.728;2023-05-07T13:43:20;21.60;87.80
77829;DHT22;67019;51.034;3.728;2023-05-07T13:45:47;21.40;88.00
77829;DHT22;67019;51.034;3.728;2023-05-07T13:48:15;21.00;89.30
77829;DHT22;67019;51.034;3.728;2023-05-07T13:50:43;20.00;91.20
77829;DHT22;67019;51.034;3.728;2023-05-07T13:53:10;20.60;90.90
77829;DHT22;67019;51.034;3.728;2023-05-07T13:55:38;20.70;90.40
77829;DHT22;67019;51.034;3.728;2023-05-07T13:58:06;20.30;90.70
77829;DHT22;67019;51.034;3.728;2023-05-07T14:00:33;19.50;91.80
77829;DHT22;67019;51.034;3.728;2023-05-07T14:03:01;19.10;93.50
77829;DHT22;67019;51.034;3.728;2023-05-07T14:05:29;19.20;94.20
77829;DHT22;67019;51.034;3.728;2023-05-07T14:08:00;19.40;93.90
77829;DHT22;67019;51.034;3.728;2023-05-07T14:10:27;19.60;92.80
77829;DHT22;67019;51.034;3.728;2023-05-07T14:12:55;20.00;92.10
77829;DHT22;67019;51.034;3.728;2023-05-07T14:15:23;19.40;92.80
77829;DHT22;67019;51.034;3.728;2023-05-07T14:17:50;18.70;94.40
77829;DHT22;67019;51.034;3.728;2023-05-07T14:20:18;18.80;95.40
77829;DHT22;67019;51.034;3.728;2023-05-07T14:22:45;18.50;96.00
77829;DHT22;67019;51.034;3.728;2023-05-07T14:25:13;18.10;97.80
77829;DHT22;67019;51.034;3.728;2023-05-07T14:27:42;17.80;98.60
77829;DHT22;67019;51.034;3.728;2023-05-07T14:30:10;17.40;99.90
77829;DHT22;67019;51.034;3.728;2023-05-07T14:32:38;17.20;99.90
77829;DHT22;67019;51.034;3.728;2023-05-07T14:35:07;17.10;99.90
77829;DHT22;67019;51.034;3.728;2023-05-07T14:37:34;17.10;99.90
77829;DHT22;67019;51.034;3.728;2023-05-07T14:40:02;16.60;99.90
77829;DHT22;67019;51.034;3.728;2023-05-07T14:42:30;16.40;99.90
77829;DHT22;67019;51.034;3.728;2023-05-07T14:44:57;16.30;99.90
77829;DHT22;67019;51.034;3.728;2023-05-07T14:47:27;16.20;99.90
77829;DHT22;67019;51.034;3.728;2023-05-07T14:49:54;16.40;99.90
77829;DHT22;67019;51.034;3.728;2023-05-07T14:52:23;16.40;99.90
77829;DHT22;67019;51.034;3.728;2023-05-07T14:54:52;16.20;99.90
77829;DHT22;67019;51.034;3.728;2023-05-07T14:57:20;16.20;99.90
77829;DHT22;67019;51.034;3.728;2023-05-07T14:59:47;16.30;99.90
77829;DHT22;67019;51.034;3.728;2023-05-07T15:02:15;16.50;99.90
77829;DHT22;67019;51.034;3.728;2023-05-07T15:04:43;16.60;99.90
77829;DHT22;67019;51.034;3.728;2023-05-07T15:07:15;16.60;99.90
77829;DHT22;67019;51.034;3.728;2023-05-07T15:09:43;16.50;99.90
77829;DHT22;67019;51.034;3.728;2023-05-07T15:12:11;16.80;99.90
77829;DHT22;67019;51.034;3.728;2023-05-07T15:14:39;17.00;99.90
77829;DHT22;67019;51.034;3.728;2023-05-07T15:17:09;17.40;99.90
77829;DHT22;67019;51.034;3.728;2023-05-07T15:19:37;17.90;99.90
77829;DHT22;67019;51.034;3.728;2023-05-07T15:22:05;18.00;99.90
77829;DHT22;67019;51.034;3.728;2023-05-07T15:24:33;18.10;99.90
77829;DHT22;67019;51.034;3.728;2023-05-07T15:27:01;18.50;99.10
77829;DHT22;67019;51.034;3.728;2023-05-07T15:29:29;18.50;98.00
77829;DHT22;67019;51.034;3.728;2023-05-07T15:31:57;18.50;98.60
77829;DHT22;67019;51.034;3.728;2023-05-07T15:34:25;18.20;98.70
77829;DHT22;67019;51.034;3.728;2023-05-07T15:36:54;18.40;97.90
77829;DHT22;67019;51.034;3.728;2023-05-07T15:39:23;18.50;97.60
77829;DHT22;67019;51.034;3.728;2023-05-07T15:41:51;18.50;97.70
77829;DHT22;67019;51.034;3.728;2023-05-07T15:44:18;18.70;97.90
77829;DHT22;67019;51.034;3.728;2023-05-07T15:46:46;18.90;97.90
77829;DHT22;67019;51.034;3.728;2023-05-07T15:49:14;19.40;96.00
77829;DHT22;67019;51.034;3.728;2023-05-07T15:51:41;19.40;95.50
77829;DHT22;67019;51.034;3.728;2023-05-07T15:54:09;19.70;95.00
77829;DHT22;67019;51.034;3.728;2023-05-07T15:56:36;20.10;94.60
77829;DHT22;67019;51.034;3.728;2023-05-07T15:59:04;19.90;95.10